Time;durP1;ratioP1;P1;durP2;ratioP2;P2;SDS_P1;SDS_P2;PMS_P1;PMS_P2;Temp;Humidity;BMP_temperature;BMP_pressure;BME280_temperature;BME280_humidity;BME280_pressure;Samples;Min_cycle;Max_cycle;Signal;HPM_P1;HPM_P2
2021/10/21 00:01:57;;;;;;;14.95;9.68;;;;;;;13.92;61.08;97994.69;5013109;28;20497;-90
2021/10/21 00:04:24;;;;;;;14.60;9.68;;;;;;;13.81;61.01;97965.00;5014454;28;20036;-90
2021/10/21 00:06:50;;;;;;;13.73;9.18;;;;;;;13.83;61.25;97957.66;5027342;28;20053;-91
2021/10/21 00:09:16;;;;;;;16.88;9.85;;;;;;;13.93;61.52;97982.97;5016116;28;20032;-90
2021/10/21 00:11:58;;;;;;;14.45;9.05;;;;;;;13.78;61.48;97946.38;5019061;28;20025;-89
2021/10/21 00:14:32;;;;;;;16.87;10.03;;;;;;;14.11;61.21;97992.47;5037263;28;20049;-89
2021/10/21 00:16:59;;;;;;;19.27;10.20;;;;;;;13.89;61.39;97960.81;5020092;28;20043;-89
2021/10/21 00:19:29;;;;;;;14.27;9.73;;;;;;;13.88;61.41;97958.22;5016820;28;20037;-91
2021/10/21 00:22:03;;;;;;;16.45;9.80;;;;;;;13.89;60.76;97939.28;5022593;28;20040;-91
2021/10/21 00:24:32;;;;;;;12.18;8.75;;;;;;;14.31;60.87;98008.09;5034795;28;20033;-88
2021/10/21 00:26:58;;;;;;;16.42;10.27;;;;;;;14.15;61.00;97991.28;5001533;28;20033;-89
2021/10/21 00:29:36;;;;;;;13.65;8.82;;;;;;;14.18;61.33;97996.44;5015676;28;20099;-90
2021/10/21 00:32:10;;;;;;;16.80;10.70;;;;;;;14.33;60.86;98014.28;5035345;28;20044;-90
2021/10/21 00:34:42;;;;;;;17.30;9.38;;;;;;;13.94;61.11;97947.03;5002886;28;20045;-89
2021/10/21 00:37:37;;;;;;;;;;;;;;;14.31;61.08;98007.22;5018094;28;20045;-90
2021/10/21 00:40:16;;;;;;;15.38;9.68;;;;;;;13.94;60.79;97934.44;5031995;28;19957;-91
2021/10/21 00:43:00;;;;;;;17.50;10.50;;;;;;;14.02;60.92;97933.94;5019011;28;20041;-90
2021/10/21 00:45:34;;;;;;;15.30;9.40;;;;;;;14.19;61.03;97973.97;5036974;28;20086;-90
2021/10/21 00:48:06;;;;;;;17.85;10.65;;;;;;;14.10;61.48;97962.00;5017107;28;20145;-90
2021/10/21 00:50:42;;;;;;;15.02;9.50;;;;;;;13.91;61.52;97947.25;5034298;28;20105;-90
2021/10/21 00:53:11;;;;;;;17.50;9.50;;;;;;;13.80;61.94;97939.94;5034925;28;20017;-89
2021/10/21 00:55:40;;;;;;;15.93;9.55;;;;;;;13.82;61.69;97937.13;5021111;28;20013;-89
2021/10/21 00:58:06;;;;;;;17.15;10.93;;;;;;;13.62;62.77;97918.81;5019243;28;20041;-89
2021/10/21 01:00:37;;;;;;;16.17;9.25;;;;;;;13.77;62.72;97956.28;5020995;28;20076;-90
2021/10/21 01:06:28;;;;;;;15.73;10.15;;;;;;;13.64;62.91;97938.38;5054371;28;20083;-89
2021/10/21 01:08:54;;;;;;;15.23;10.57;;;;;;;13.55;63.21;97919.22;5040738;28;20038;-88
2021/10/21 01:11:21;;;;;;;17.42;11.00;;;;;;;13.50;63.56;97913.28;5041586;28;20040;-90
2021/10/21 01:13:56;;;;;;;17.08;10.52;;;;;;;13.62;63.87;97934.94;5040706;28;20033;-88
2021/10/21 01:16:26;;;;;;;19.08;10.85;;;;;;;13.48;63.93;97917.03;5058762;28;20032;-89
2021/10/21 01:18:57;;;;;;;17.42;9.98;;;;;;;13.60;63.67;97921.59;5026647;28;21105;-91
2021/10/21 01:21:27;;;;;;;15.07;10.90;;;;;;;13.42;63.95;97902.22;5024266;28;20420;-90
2021/10/21 01:23:57;;;;;;;18.85;11.00;;;;;;;13.88;63.91;97969.84;5024097;28;20045;-91
2021/10/21 01:26:23;;;;;;;15.60;9.80;;;;;;;13.67;64.45;97940.84;5037637;28;20040;-91
2021/10/21 01:28:49;;;;;;;15.98;10.18;;;;;;;13.51;64.66;97923.09;4998377;28;20034;-90
2021/10/21 01:31:16;;;;;;;17.75;10.63;;;;;;;13.41;64.35;97889.72;5002535;28;20608;-91
2021/10/21 01:33:42;;;;;;;18.65;11.27;;;;;;;13.45;64.69;97915.44;4999439;28;20041;-90
2021/10/21 01:36:11;;;;;;;17.58;10.80;;;;;;;13.61;64.80;97946.66;5007764;28;20013;-90
2021/10/21 01:38:37;;;;;;;16.02;10.50;;;;;;;13.71;64.73;97951.31;5019064;28;20048;-89
2021/10/21 01:41:03;;;;;;;17.88;10.23;;;;;;;13.40;64.66;97885.34;5004851;28;20034;-90
2021/10/21 01:43:29;;;;;;;15.82;10.25;;;;;;;13.56;64.58;97923.66;5009678;28;20030;-89
2021/10/21 01:45:55;;;;;;;16.80;10.48;;;;;;;13.76;64.64;97950.97;5021362;28;20036;-90
2021/10/21 01:48:20;;;;;;;13.35;9.93;;;;;;;13.73;64.56;97952.06;5008021;28;20057;-90
2021/10/21 01:50:46;;;;;;;16.05;10.35;;;;;;;13.78;64.40;97933.78;5009479;28;20037;-89
2021/10/21 01:53:12;;;;;;;14.27;9.88;;;;;;;13.86;64.02;97944.88;5008429;28;20092;-89
2021/10/21 01:55:38;;;;;;;14.02;10.50;;;;;;;13.64;64.95;97922.25;5000319;28;20065;-89
2021/10/21 01:58:04;;;;;;;15.73;9.88;;;;;;;13.47;66.08;97940.38;4993805;28;20014;-89
2021/10/21 02:00:30;;;;;;;14.18;9.75;;;;;;;13.14;67.51;97949.81;4993017;28;20044;-90
2021/10/21 02:02:56;;;;;;;15.32;10.60;;;;;;;12.83;69.60;97950.91;5013915;28;20046;-89
2021/10/21 02:05:22;;;;;;;19.02;11.23;;;;;;;12.80;69.47;97945.75;5017387;28;20029;-89
2021/10/21 02:07:48;;;;;;;16.38;10.52;;;;;;;12.91;68.59;97951.31;5031353;28;20029;-89
2021/10/21 02:10:16;;;;;;;17.65;10.75;;;;;;;13.07;67.90;97927.84;5010709;28;20073;-89
2021/10/21 02:12:42;;;;;;;17.55;9.30;;;;;;;13.20;67.16;97933.28;5009490;28;20065;-89
2021/10/21 02:15:09;;;;;;;15.98;10.82;;;;;;;13.31;66.59;97920.88;4994151;28;20034;-89
2021/10/21 02:17:34;;;;;;;21.17;11.48;;;;;;;13.53;66.02;97934.59;5011085;28;20060;-90
2021/10/21 02:20:00;;;;;;;15.68;10.40;;;;;;;13.44;65.87;97918.25;5009567;28;20034;-89
2021/10/21 02:22:26;;;;;;;23.25;10.70;;;;;;;13.42;66.16;97923.69;5010311;28;20026;-90
2021/10/21 02:24:53;;;;;;;15.13;9.90;;;;;;;13.18;68.25;97933.41;5015620;28;20026;-90
2021/10/21 02:27:23;;;;;;;20.85;10.77;;;;;;;12.68;70.58;97933.97;5034562;28;20052;-90
2021/10/21 02:29:55;;;;;;;17.35;11.00;;;;;;;12.48;70.80;97929.91;5016599;28;20022;-90
2021/10/21 02:32:21;;;;;;;17.83;11.13;;;;;;;12.74;69.75;97927.34;5035379;28;20013;-91
2021/10/21 02:35:14;;;;;;;16.98;10.85;;;;;;;13.12;67.66;97915.00;5019775;28;20021;-91
2021/10/21 02:38:12;;;;;;;17.08;10.30;;;;;;;13.52;66.16;97927.50;5019236;28;20138;-90
2021/10/21 02:40:39;;;;;;;17.33;10.38;;;;;;;13.28;65.95;97878.09;5200180;23;20595;-89
2021/10/21 02:43:05;;;;;;;17.90;10.38;;;;;;;13.52;65.14;97895.25;5020586;28;20056;-90
2021/10/21 02:45:31;;;;;;;15.57;11.07;;;;;;;13.61;64.78;97911.72;5034092;28;20025;-90
2021/10/21 02:47:57;;;;;;;17.52;11.18;;;;;;;13.35;64.74;97852.53;5036535;28;20037;-90
2021/10/21 02:50:24;;;;;;;16.73;10.30;;;;;;;13.30;64.65;97853.81;5004298;28;20037;-87
2021/10/21 02:52:50;;;;;;;13.85;9.88;;;;;;;13.44;64.65;97886.81;5034730;28;20487;-88
2021/10/21 02:55:17;;;;;;;15.95;9.82;;;;;;;13.60;64.98;97916.22;5012076;28;20420;-88
2021/10/21 02:57:42;;;;;;;18.02;11.02;;;;;;;13.45;64.67;97896.63;5022481;28;20064;-88
2021/10/21 03:00:10;;;;;;;19.65;10.93;;;;;;;13.69;64.76;97928.19;5024677;28;20089;-90
2021/10/21 03:02:36;;;;;;;18.80;11.20;;;;;;;13.21;66.86;97911.72;5050193;28;20028;-90
2021/10/21 03:05:02;;;;;;;19.38;10.52;;;;;;;12.88;68.09;97921.97;5037185;28;20085;-90
2021/10/21 03:07:28;;;;;;;19.38;11.30;;;;;;;12.26;71.36;97924.16;5039281;28;20017;-89
2021/10/21 03:09:53;;;;;;;31.92;14.45;;;;;;;11.99;72.92;97916.97;5038993;28;20052;-90
2021/10/21 03:12:19;;;;;;;44.25;18.73;;;;;;;11.80;74.59;97915.41;5039300;28;20081;-90
2021/10/21 03:14:45;;;;;;;25.27;13.20;;;;;;;11.46;76.27;97902.28;5022843;28;20064;-89
2021/10/21 03:17:10;;;;;;;20.80;12.40;;;;;;;11.01;79.60;97899.66;5039920;28;20098;-90
2021/10/21 03:19:36;;;;;;;21.20;11.88;;;;;;;10.76;81.98;97905.56;5037655;28;20061;-88
2021/10/21 03:22:02;;;;;;;21.42;12.65;;;;;;;10.40;84.65;97902.28;5039466;28;20044;-91
2021/10/21 03:24:28;;;;;;;19.98;12.05;;;;;;;10.22;86.95;97901.44;5039645;28;20025;-91
2021/10/21 03:26:53;;;;;;;18.83;11.80;;;;;;;10.00;88.99;97875.00;5040108;28;20017;-90
2021/10/21 03:29:19;;;;;;;26.08;12.13;;;;;;;10.07;90.24;97903.13;5024219;28;20079;-91
2021/10/21 03:31:45;;;;;;;24.75;12.70;;;;;;;9.92;91.52;97881.72;5022396;28;20109;-92
2021/10/21 03:34:11;;;;;;;27.65;13.82;;;;;;;9.82;93.19;97897.38;5017035;28;20028;-89
2021/10/21 03:36:37;;;;;;;21.80;13.05;;;;;;;9.75;94.78;97896.00;5012302;28;20040;-90
2021/10/21 03:39:03;;;;;;;26.35;12.07;;;;;;;9.69;94.85;97875.78;5012485;28;20033;-88
2021/10/21 03:41:29;;;;;;;20.23;12.88;;;;;;;9.73;95.62;97900.53;5016761;28;20041;-90
2021/10/21 03:43:55;;;;;;;24.40;13.45;;;;;;;9.39;96.21;97845.38;5015183;28;20025;-89
2021/10/21 03:46:21;;;;;;;24.30;14.52;;;;;;;9.44;97.63;97867.38;5014189;28;20038;-90
2021/10/21 03:48:46;;;;;;;25.90;14.57;;;;;;;9.33;99.02;97871.50;5016411;28;20032;-90
2021/10/21 03:51:39;;;;;;;28.45;16.88;;;;;;;9.09;100.00;97846.94;5015188;28;20036;-90
2021/10/21 03:54:04;;;;;;;28.50;16.55;;;;;;;8.79;100.00;97817.38;5036250;28;20191;-91
2021/10/21 03:56:37;;;;;;;26.60;15.25;;;;;;;8.95;100.00;97838.81;5019804;28;20033;-90
2021/10/21 03:59:10;;;;;;;36.33;16.02;;;;;;;8.80;100.00;97808.41;5017880;28;20029;-89
2021/10/21 04:01:40;;;;;;;35.03;16.73;;;;;;;9.27;100.00;97889.59;5094769;23;20543;-84
2021/10/21 04:04:07;;;;;;;27.70;14.95;;;;;;;8.80;100.00;97813.75;5098854;28;20049;-88
2021/10/21 04:06:35;;;;;;;25.92;15.32;;;;;;;8.75;100.00;97805.13;5125609;28;20036;-90
2021/10/21 04:10:00;;;;;;;;;;;;;;;;;;;;;
2021/10/21 04:12:26;;;;;;;;;;;;;;;9.03;100.00;97880.16;5122209;28;20055;-91
2021/10/21 04:18:16;;;;;;;31.00;15.98;;;;;;;8.89;100.00;97871.13;5133089;28;20039;-91
2021/10/21 04:20:46;;;;;;;31.35;15.52;;;;;;;8.59;100.00;97839.69;5095886;28;20065;-91
2021/10/21 04:23:12;;;;;;;31.83;16.42;;;;;;;8.35;100.00;97798.25;5096689;28;20074;-90
2021/10/21 04:31:49;;;;;;;26.75;15.93;;;;;;;8.36;100.00;97788.47;5128686;28;20038;-89
2021/10/21 04:34:16;;;;;;;27.75;16.30;;;;;;;8.83;100.00;97874.94;5109694;28;20047;-91
2021/10/21 04:36:42;;;;;;;33.45;16.63;;;;;;;8.49;100.00;97797.59;5096626;28;20084;-90
2021/10/21 04:39:08;;;;;;;41.63;18.90;;;;;;;8.64;100.00;97844.81;5093494;28;20031;-90
2021/10/21 04:41:34;;;;;;;31.33;16.15;;;;;;;8.46;100.00;97787.06;5096251;28;20036;-90
2021/10/21 04:44:00;;;;;;;33.88;19.02;;;;;;;8.73;100.00;97846.16;5089448;28;20034;-76
2021/10/21 04:46:25;;;;;;;33.10;16.25;;;;;;;8.68;100.00;97835.69;5076784;28;20032;-75
2021/10/21 04:48:52;;;;;;;34.35;16.73;;;;;;;8.60;100.00;97803.22;5111959;28;20110;-75
2021/10/21 04:51:17;;;;;;;40.97;18.95;;;;;;;8.92;100.00;97853.13;5093201;28;20065;-75
2021/10/21 04:53:45;;;;;;;41.60;17.85;;;;;;;8.87;100.00;97843.66;5076935;28;20055;-75
2021/10/21 04:56:11;;;;;;;31.73;15.80;;;;;;;9.02;100.00;97846.41;5076550;28;20410;-75
2021/10/21 04:58:37;;;;;;;32.50;14.25;;;;;;;9.19;100.00;97840.22;5093591;28;20027;-75
2021/10/21 05:01:03;;;;;;;29.70;14.10;;;;;;;9.26;100.00;97845.13;5075978;28;20028;-76
2021/10/21 05:03:28;;;;;;;29.73;16.65;;;;;;;9.33;100.00;97835.00;5076407;28;20046;-76
2021/10/21 05:05:54;;;;;;;38.90;15.82;;;;;;;9.41;100.00;97850.63;5076449;28;20035;-75
2021/10/21 05:08:20;;;;;;;32.30;16.25;;;;;;;9.32;100.00;97835.09;5076169;28;20501;-77
2021/10/21 05:10:45;;;;;;;38.83;18.60;;;;;;;9.30;100.00;97820.94;5084851;28;20027;-76
2021/10/21 05:13:12;;;;;;;36.22;18.63;;;;;;;9.40;100.00;97824.88;5073983;28;20031;-76
2021/10/21 05:15:40;;;;;;;40.50;18.45;;;;;;;9.52;100.00;97843.78;5093326;28;20054;-75
2021/10/21 05:18:06;;;;;;;53.85;20.08;;;;;;;9.44;100.00;97815.75;5076347;28;20034;-75
2021/10/21 05:20:32;;;;;;;40.08;16.85;;;;;;;9.59;100.00;97842.53;5092906;28;20027;-76
2021/10/21 05:22:57;;;;;;;39.22;17.80;;;;;;;9.51;100.00;97827.81;5076447;28;20064;-76
2021/10/21 05:25:23;;;;;;;44.35;20.85;;;;;;;9.50;100.00;97815.44;5076056;28;20054;-75
2021/10/21 05:27:48;;;;;;;50.08;24.40;;;;;;;9.52;100.00;97814.41;5076362;28;20042;-76
2021/10/21 05:30:14;;;;;;;55.25;24.77;;;;;;;9.77;100.00;97832.66;5074186;28;20039;-77
2021/10/21 05:32:40;;;;;;;46.78;23.05;;;;;;;10.71;95.39;97824.66;5093327;28;20019;-76
2021/10/21 05:35:06;;;;;;;43.85;21.92;;;;;;;12.23;83.42;97808.16;5076090;28;20032;-78
2021/10/21 05:37:32;;;;;;;57.03;23.33;;;;;;;13.73;74.87;97836.44;5075781;28;20036;-76
2021/10/21 05:39:58;;;;;;;57.08;24.83;;;;;;;14.29;70.41;97824.34;5075883;28;20082;-77
2021/10/21 05:42:23;;;;;;;50.83;25.00;;;;;;;15.40;64.81;97838.44;5075891;28;20032;-75
2021/10/21 05:44:49;;;;;;;47.47;21.77;;;;;;;16.03;60.92;97829.03;5092744;28;20030;-78
2021/10/21 05:47:16;;;;;;;37.38;19.08;;;;;;;16.64;58.04;97828.53;5075911;28;20030;-75
2021/10/21 05:49:42;;;;;;;40.95;18.17;;;;;;;17.33;55.84;97826.34;5092827;28;20505;-77
2021/10/21 05:52:08;;;;;;;45.92;21.13;;;;;;;18.06;53.14;97823.59;5093051;28;20102;-81
2021/10/21 05:54:34;;;;;;;51.88;19.58;;;;;;;18.28;52.01;97828.00;5090683;28;20038;-91
2021/10/21 05:56:59;;;;;;;49.83;20.92;;;;;;;19.29;49.39;97807.84;5102002;28;20035;-92
2021/10/21 05:59:25;;;;;;;38.40;16.25;;;;;;;19.82;46.79;97808.28;5103832;28;20028;-90
2021/10/21 06:01:50;;;;;;;40.00;15.93;;;;;;;19.60;47.49;97792.31;5093666;28;20055;-76
2021/10/21 06:04:16;;;;;;;30.73;16.17;;;;;;;20.48;45.70;97794.66;5076367;28;20028;-76
2021/10/21 06:06:43;;;;;;;29.65;15.82;;;;;;;19.56;47.10;97799.03;5078207;28;20031;-92
2021/10/21 06:09:10;;;;;;;44.33;18.77;;;;;;;20.03;46.27;97808.06;5094564;28;20040;-93
2021/10/21 06:11:37;;;;;;;39.58;17.00;;;;;;;20.48;45.19;97783.78;5079335;28;20063;-91
2021/10/21 06:14:05;;;;;;;41.75;16.40;;;;;;;21.08;44.04;97793.13;5062135;28;20028;-92
2021/10/21 06:16:33;;;;;;;36.17;15.38;;;;;;;21.52;42.53;97791.38;5057763;28;20092;-91
2021/10/21 06:18:59;;;;;;;11.18;7.63;;;;;;;21.47;40.95;97782.84;5056082;28;20025;-94
2021/10/21 06:21:27;;;;;;;13.23;7.72;;;;;;;21.54;40.97;97776.59;5053056;28;20047;-93
2021/10/21 06:23:53;;;;;;;17.48;10.52;;;;;;;22.11;40.48;97779.75;5053596;28;20033;-90
2021/10/21 06:26:19;;;;;;;13.45;8.50;;;;;;;22.82;37.99;97761.22;5054296;28;20027;-92
2021/10/21 06:28:51;;;;;;;25.90;9.50;;;;;;;22.64;38.19;97763.16;5051634;28;20024;-91
2021/10/21 06:34:47;;;;;;;15.10;8.48;;;;;;;22.65;38.09;97753.97;5087841;28;20032;-94
2021/10/21 06:37:15;;;;;;;14.20;9.63;;;;;;;22.20;39.21;97761.56;5073712;28;20476;-91
2021/10/21 06:39:41;;;;;;;14.18;7.65;;;;;;;21.88;38.89;97767.66;5056618;28;20032;-93
2021/10/21 06:42:06;;;;;;;11.32;8.35;;;;;;;22.03;38.86;97769.66;5052449;28;20089;-91
2021/10/21 06:44:32;;;;;;;18.52;9.43;;;;;;;22.01;38.95;97751.75;5050458;28;20009;-94
2021/10/21 06:46:58;;;;;;;15.65;9.02;;;;;;;22.35;38.36;97749.91;5050786;28;20040;-92
2021/10/21 06:49:25;;;;;;;12.05;8.00;;;;;;;22.48;37.96;97752.19;5054968;28;20020;-90
2021/10/21 06:51:50;;;;;;;11.02;8.80;;;;;;;22.95;37.45;97738.91;5057201;28;20027;-92
2021/10/21 06:54:19;;;;;;;12.30;8.38;;;;;;;23.30;36.68;97724.94;5091065;23;20119;-93
2021/10/21 06:56:45;;;;;;;14.13;7.65;;;;;;;23.51;35.34;97680.75;5074724;28;20082;-89
2021/10/21 06:59:11;;;;;;;9.93;6.90;;;;;;;23.56;35.44;97692.03;5094437;28;20092;-92
2021/10/21 07:01:36;;;;;;;10.02;7.90;;;;;;;24.45;34.06;97697.28;5070659;28;20060;-91
2021/10/21 07:04:08;;;;;;;11.55;8.40;;;;;;;24.10;34.34;97709.50;5184017;23;20079;-91
2021/10/21 07:06:42;;;;;;;17.70;12.73;;;;;;;23.93;34.98;97670.44;5052027;28;20457;-93
2021/10/21 07:09:10;;;;;;;20.40;9.98;;;;;;;23.93;34.91;97710.59;5062786;28;20036;-92
2021/10/21 07:11:37;;;;;;;13.25;9.75;;;;;;;24.58;33.84;97706.59;5059978;28;20033;-93
2021/10/21 07:14:03;;;;;;;10.15;7.45;;;;;;;23.72;34.69;97686.53;5070191;28;20032;-92
2021/10/21 07:16:29;;;;;;;15.02;7.72;;;;;;;23.93;34.76;97708.72;5067550;28;20470;-92
2021/10/21 07:18:54;;;;;;;23.25;15.15;;;;;;;23.80;35.29;97729.38;5069608;28;20024;-92
2021/10/21 07:21:20;;;;;;;15.93;8.70;;;;;;;24.44;34.06;97717.44;5058008;28;20411;-92
2021/10/21 07:23:46;;;;;;;14.25;9.13;;;;;;;24.36;34.64;97731.16;5061771;28;20032;-93
2021/10/21 07:26:13;;;;;;;13.38;8.82;;;;;;;23.45;35.68;97719.69;5057206;28;20048;-92
2021/10/21 07:28:39;;;;;;;8.98;7.15;;;;;;;23.45;35.80;97733.34;5055002;28;20086;-92
2021/10/21 07:31:05;;;;;;;13.32;8.60;;;;;;;23.01;36.51;97719.94;5058723;28;20020;-93
2021/10/21 07:33:31;;;;;;;13.52;8.95;;;;;;;23.57;36.10;97718.31;5046886;28;20453;-92
2021/10/21 07:35:57;;;;;;;16.63;7.97;;;;;;;24.06;34.68;97719.94;5049694;28;20028;-92
2021/10/21 07:38:24;;;;;;;10.93;8.15;;;;;;;24.89;33.80;97714.84;5048668;28;20032;-93
2021/10/21 07:40:49;;;;;;;12.05;8.40;;;;;;;24.23;34.35;97704.38;5050358;28;20020;-91
2021/10/21 07:43:15;;;;;;;12.38;7.63;;;;;;;24.30;34.24;97716.31;5051611;28;20076;-91
2021/10/21 07:45:42;;;;;;;10.60;7.97;;;;;;;24.44;34.03;97712.81;5049804;28;20063;-93
2021/10/21 07:48:07;;;;;;;12.63;7.82;;;;;;;24.54;34.06;97697.06;5051197;28;20036;-92
2021/10/21 07:50:35;;;;;;;17.20;9.63;;;;;;;25.09;33.91;97717.97;5047858;28;20471;-91
2021/10/21 07:53:02;;;;;;;10.27;7.03;;;;;;;24.25;34.44;97700.44;5049379;28;20143;-91
2021/10/21 07:55:30;;;;;;;10.95;7.75;;;;;;;23.89;35.07;97707.34;5049751;28;20043;-93
2021/10/21 07:58:01;;;;;;;11.32;7.82;;;;;;;23.96;35.15;97716.56;5059193;28;20027;-92
2021/10/21 08:00:27;;;;;;;11.38;8.63;;;;;;;23.32;35.85;97671.00;5040217;28;20119;-91
2021/10/21 08:02:53;;;;;;;13.60;7.68;;;;;;;23.20;35.51;97678.69;5047994;28;20506;-90
2021/10/21 08:05:18;;;;;;;10.80;7.43;;;;;;;23.95;34.66;97668.38;5040341;28;20105;-90
2021/10/21 08:07:48;;;;;;;12.38;8.52;;;;;;;23.99;34.80;97679.81;5045403;28;20115;-91
2021/10/21 08:10:16;;;;;;;12.63;6.47;;;;;;;24.06;34.38;97651.59;5040665;28;20032;-77
2021/10/21 08:12:42;;;;;;;10.93;7.80;;;;;;;23.93;35.06;97700.50;5045873;28;20113;-79
2021/10/21 08:15:09;;;;;;;10.93;7.70;;;;;;;24.44;34.08;97680.00;5023759;28;20048;-76
2021/10/21 08:17:35;;;;;;;9.98;8.02;;;;;;;24.26;34.85;97698.56;5045893;28;20086;-77
2021/10/21 08:20:01;;;;;;;12.02;8.23;;;;;;;23.07;36.54;97666.59;5025609;28;20036;-77
2021/10/21 08:22:26;;;;;;;9.57;7.97;;;;;;;23.52;35.82;97687.94;5030766;28;20021;-76
2021/10/21 08:24:55;;;;;;;13.25;8.02;;;;;;;23.53;35.79;97693.22;5036512;28;20040;-76
2021/10/21 08:27:21;;;;;;;11.20;7.43;;;;;;;23.17;36.26;97697.28;5052967;28;20113;-77
2021/10/21 08:29:47;;;;;;;9.23;6.93;;;;;;;22.83;36.92;97700.16;5020104;28;20039;-76
2021/10/21 08:32:13;;;;;;;11.55;8.00;;;;;;;23.19;36.49;97682.44;5032765;28;20480;-77
2021/10/21 08:34:39;;;;;;;9.90;6.50;;;;;;;23.12;36.72;97686.91;5032397;28;20029;-76
2021/10/21 08:37:06;;;;;;;9.38;7.45;;;;;;;23.11;36.94;97693.38;5046777;28;20098;-77
2021/10/21 08:39:34;;;;;;;17.40;8.38;;;;;;;23.84;35.73;97671.47;5016747;28;20029;-76
2021/10/21 08:42:00;;;;;;;10.10;7.85;;;;;;;25.05;34.01;97670.06;5047165;28;20461;-77
2021/10/21 08:44:26;;;;;;;8.95;6.15;;;;;;;25.02;33.16;97660.34;5027189;28;20025;-75
2021/10/21 08:46:53;;;;;;;12.23;7.43;;;;;;;24.69;33.81;97656.97;5045732;28;20020;-76
2021/10/21 08:49:20;;;;;;;10.63;7.57;;;;;;;24.86;34.21;97670.56;5024187;28;20177;-76
2021/10/21 08:51:46;;;;;;;10.32;6.95;;;;;;;24.76;33.99;97657.09;5016691;28;20056;-76
2021/10/21 08:54:12;;;;;;;9.98;6.75;;;;;;;24.54;34.09;97679.78;5044479;28;20036;-76
2021/10/21 08:56:38;;;;;;;12.15;7.88;;;;;;;24.45;34.66;97675.41;5028061;28;20553;-77
2021/10/21 08:59:04;;;;;;;12.00;7.28;;;;;;;24.77;34.08;97672.47;5053004;28;20039;-77
2021/10/21 09:01:41;;;;;;;9.55;6.57;;;;;;;24.96;33.55;97658.34;5027691;28;20472;-77
2021/10/21 09:09:23;;;;;;;10.07;7.70;;;;;;;25.47;32.65;97644.91;5057505;28;20502;-77
2021/10/21 09:12:08;;;;;;;8.40;6.75;;;;;;;26.15;32.01;97642.84;5073382;28;20012;-78
2021/10/21 09:14:37;;;;;;;9.90;7.22;;;;;;;26.30;32.27;97638.19;5067324;28;20021;-76
2021/10/21 09:17:04;;;;;;;11.80;6.63;;;;;;;26.20;31.87;97636.81;5040081;28;20055;-77
2021/10/21 09:19:30;;;;;;;11.07;7.07;;;;;;;26.62;32.06;97636.06;5055427;28;20029;-76
2021/10/21 09:21:56;;;;;;;18.73;6.25;;;;;;;27.28;29.93;97619.25;5038511;28;20024;-77
2021/10/21 09:24:26;;;;;;;9.45;6.68;;;;;;;27.26;29.98;97624.06;5071530;28;20031;-76
2021/10/21 09:27:08;;;;;;;8.10;6.30;;;;;;;27.79;29.30;97616.28;5070477;28;20116;-76
2021/10/21 09:29:53;;;;;;;;;;;;;;;27.93;29.00;97609.81;5073265;28;20051;-78
2021/10/21 09:32:23;;;;;;;7.53;6.30;;;;;;;26.78;30.30;97608.38;5040336;28;19912;-79
2021/10/21 09:35:02;;;;;;;12.05;6.97;;;;;;;26.74;30.47;97605.16;5049881;28;20032;-76
2021/10/21 09:37:41;;;;;;;8.52;6.72;;;;;;;26.69;30.33;97615.03;5042854;28;20017;-78
2021/10/21 09:40:07;;;;;;;9.38;6.68;;;;;;;26.08;31.63;97603.50;5064180;28;20028;-77
2021/10/21 09:42:38;;;;;;;9.90;7.40;;;;;;;26.53;30.77;97612.50;5079300;28;20021;-77
2021/10/21 09:45:20;;;;;;;12.38;8.32;;;;;;;27.07;30.82;97608.25;5057337;28;20028;-80
2021/10/21 09:47:49;;;;;;;12.70;7.90;;;;;;;27.10;30.25;97585.88;5067532;28;20024;-79
2021/10/21 09:50:54;;;;;;;10.60;8.05;;;;;;;26.45;31.22;97579.72;5043682;28;20033;-78
2021/10/21 09:53:24;;;;;;;8.00;6.35;;;;;;;26.90;30.18;97579.38;5058912;28;20461;-78
2021/10/21 09:56:00;;;;;;;9.43;7.05;;;;;;;27.97;29.55;97578.94;5062847;28;20036;-77
2021/10/21 09:58:42;;;;;;;7.40;6.10;;;;;;;28.31;28.35;97567.06;5065487;28;20399;-79
2021/10/21 10:01:15;;;;;;;10.20;7.55;;;;;;;28.84;28.04;97572.75;5067833;28;20407;-76
2021/10/21 10:03:43;;;;;;;11.60;7.68;;;;;;;28.35;28.40;97564.75;5065867;28;20112;-76
2021/10/21 10:06:11;;;;;;;9.35;6.85;;;;;;;28.42;27.81;97558.25;5091535;28;20027;-75
2021/10/21 10:08:36;;;;;;;9.95;7.15;;;;;;;29.33;27.30;97548.44;5063668;28;20031;-77
2021/10/21 10:11:08;;;;;;;9.10;6.75;;;;;;;30.66;26.13;97538.72;5061153;28;20035;-78
2021/10/21 10:13:34;;;;;;;12.00;7.82;;;;;;;31.02;24.49;97538.94;5083243;28;20068;-81
2021/10/21 10:16:00;;;;;;;12.00;8.98;;;;;;;31.79;24.09;97523.78;5078524;28;20034;-75
2021/10/21 10:18:28;;;;;;;7.22;6.13;;;;;;;31.51;24.31;97515.97;5091744;28;20099;-76
2021/10/21 10:21:14;;;;;;;13.68;7.45;;;;;;;31.02;24.91;97527.88;5074292;28;20038;-76
2021/10/21 10:23:49;;;;;;;9.77;7.82;;;;;;;31.10;25.12;97509.09;5081728;28;20107;-76
2021/10/21 10:26:47;;;;;;;9.50;7.43;;;;;;;31.49;24.25;97507.06;5089784;28;20514;-76
2021/10/21 10:29:31;;;;;;;8.60;6.15;;;;;;;30.97;25.40;97511.97;5062217;28;20077;-78
2021/10/21 10:31:59;;;;;;;7.60;5.93;;;;;;;31.25;24.32;97506.00;5102947;28;20148;-76
2021/10/21 10:34:48;;;;;;;8.70;6.75;;;;;;;31.32;24.07;97495.72;5084433;28;20032;-75
2021/10/21 10:37:14;;;;;;;10.52;7.50;;;;;;;31.30;24.49;97486.81;5083716;28;20032;-75
2021/10/21 10:39:53;;;;;;;9.20;6.40;;;;;;;31.59;23.71;97475.03;5093316;28;20043;-76
2021/10/21 10:42:42;;;;;;;9.40;6.28;;;;;;;32.34;23.31;97481.16;5077447;28;20124;-75
2021/10/21 10:45:12;;;;;;;7.95;6.05;;;;;;;31.65;23.51;97473.28;5084225;28;20020;-74
2021/10/21 10:47:38;;;;;;;6.78;5.75;;;;;;;31.92;23.44;97476.59;5089476;28;20028;-74
2021/10/21 10:50:08;;;;;;;6.28;5.68;;;;;;;32.17;23.43;97478.22;5094931;28;20064;-75
2021/10/21 10:52:59;;;;;;;9.57;5.25;;;;;;;33.03;21.76;97457.53;5081943;28;20043;-76
2021/10/21 10:55:50;;;;;;;9.30;5.78;;;;;;;33.20;21.63;97453.00;5087492;28;20023;-77
2021/10/21 10:58:15;;;;;;;10.77;6.40;;;;;;;32.93;21.50;97444.28;5079659;28;20562;-75
2021/10/21 11:00:51;;;;;;;6.47;5.45;;;;;;;32.58;22.00;97452.50;5101980;28;20111;-76
2021/10/21 11:03:32;;;;;;;8.52;5.63;;;;;;;32.62;22.44;97456.50;5075001;28;20040;-75
2021/10/21 11:06:02;;;;;;;6.28;5.40;;;;;;;32.10;21.98;97447.00;5088707;28;20118;-75
2021/10/21 11:08:51;;;;;;;12.77;5.95;;;;;;;30.59;23.74;97434.66;5069078;28;20445;-75
2021/10/21 11:11:39;;;;;;;6.90;5.85;;;;;;;30.59;23.79;97431.91;5074435;28;20102;-75
2021/10/21 11:14:15;;;;;;;8.27;6.15;;;;;;;30.38;23.87;97432.22;5083548;28;20067;-75
2021/10/21 11:16:46;;;;;;;7.15;5.82;;;;;;;30.41;23.92;97430.97;5058143;28;20402;-75
2021/10/21 11:19:14;;;;;;;8.32;5.70;;;;;;;30.29;24.44;97425.28;5104581;28;20028;-75
2021/10/21 11:21:52;;;;;;;7.72;5.68;;;;;;;29.81;24.57;97426.81;5058104;28;20031;-76
2021/10/21 11:24:51;;;;;;;7.18;5.95;;;;;;;29.65;25.29;97425.38;5058492;28;20062;-75
2021/10/21 11:27:18;;;;;;;9.15;6.32;;;;;;;30.73;24.50;97418.00;5079246;28;20482;-75
2021/10/21 11:29:48;;;;;;;6.65;5.70;;;;;;;30.37;24.19;97413.97;5061537;28;20493;-77
2021/10/21 11:32:14;;;;;;;7.15;5.97;;;;;;;30.78;24.52;97418.16;5062466;28;20024;-75
2021/10/21 11:34:40;;;;;;;8.90;6.60;;;;;;;32.00;23.36;97418.13;5067099;28;20043;-75
2021/10/21 11:37:06;;;;;;;6.07;5.15;;;;;;;32.41;21.95;97397.97;5064224;28;20032;-75
2021/10/21 11:39:37;;;;;;;7.57;6.30;;;;;;;31.82;22.85;97404.31;5092042;28;20028;-75
2021/10/21 11:42:08;;;;;;;7.40;5.95;;;;;;;32.79;22.28;97392.94;5074007;28;20024;-75
2021/10/21 11:44:38;;;;;;;6.15;5.32;;;;;;;32.25;22.45;97391.19;5065620;28;20032;-75
2021/10/21 11:47:05;;;;;;;7.10;5.75;;;;;;;31.74;22.90;97396.34;5057604;28;20107;-75
2021/10/21 11:49:33;;;;;;;6.75;6.00;;;;;;;31.86;22.80;97386.19;5076867;28;20039;-76
2021/10/21 11:52:17;;;;;;;6.80;5.53;;;;;;;31.84;22.08;97380.88;5062139;28;20025;-76
2021/10/21 11:54:44;;;;;;;6.63;5.93;;;;;;;31.17;23.11;97379.09;5075381;28;20060;-77
2021/10/21 11:57:09;;;;;;;10.25;5.57;;;;;;;31.46;22.84;97369.22;5077640;28;20020;-77
2021/10/21 11:59:37;;;;;;;8.10;6.20;;;;;;;31.54;22.89;97366.16;5085535;28;20038;-76